Lester B. Pearson International Airport
CYYZ : now visible

Airfield :











YOU CAN JOIN US ON...

 
LOGIN :

Register | Disclaimer

   EN    FR    IT 

 









Legend :    VFR   Marginal VFR   IFR   Intensive IFR   Very Intensive IFR
Visi :
Ceiling :
>= 8 km
>= 3000ft
5 to 8 km
1000 to 3000 ft
1500m to 5 km
500 to 1000 ft
800 to 1500m
200 to 500 ft
< 800m
< 200 ft
Symbols :   Thunderstorms  Fog  Heavy snow  Heavy precipitations  Wind > 20 kt






- Airport Elevation : 569 ft
- IATA code : YYZ


CYYZ - Lester B. Pearson International

CURRENT METAR :
  • 311600Z 19003KT 100V270 15SM SCT038 04/M05 A3044 RMK SC3 SLP317

EXPIRED METARs :
  • 311500Z VRB02KT 15SM FEW035 02/M06 A3044 RMK SC1 SC TR SLP319
  • 311400Z 27005KT 15SM SKC 01/M05 A3046 RMK SLP323

TAF TAF CYYZ
Valid from the 31 at 15:00 until the 01 at 18:00 UTC


311438Z 3115/0118 27005KT P6SM SKC
BECMG 3115/3117 18010KT
FM311700 18012KT P6SM BKN030
TEMPO 3117/3123 BKN020
BECMG 3118/3120 18010G20KT
FM010100 18012KT P6SM SCT030
BECMG 0104/0106 20012G22KT
FM010700 20015G25KT P6SM SCT040 BKN130
FM011100 20015G25KT P6SM -SHRA OVC020
FM011300 20020G30KT 5SM -SHRA BR SCT008 OVC012
BECMG 0115/0117 26015G25KT
FM011700 26018G28KT P6SM BKN020 RMK NXT FCST BY 311800Z
CZYZ FIR / North America



MET'MAP, your aeronautical weather chart ! - Copyright ORBIFLY December 2007 - Disclaimer

ORBIFLY MET'MAP TEAM :

Programming & Development : Alexandra Zaïnal
Concept & original design : Baudouin d'Aumeries
Assistance for programming : Marc-Olivier Méhu
Technical & hardware support : Manuel Goepfert

Contact : metmap@orbifly.com




SOURCES & CREDITS :

   NOAA       Earth
Advisory